createdAt,value
2018-12-04T00:00:09.563Z,997.4
2018-12-04T00:00:49.921Z,997.41
2018-12-04T00:01:30.332Z,997.49
2018-12-04T00:02:10.729Z,997.48
2018-12-04T00:02:51.133Z,997.5
2018-12-04T00:03:31.547Z,997.54
2018-12-04T00:04:11.910Z,997.59
2018-12-04T00:04:52.302Z,997.47
2018-12-04T00:05:32.721Z,997.69
2018-12-04T00:06:13.115Z,997.64
2018-12-04T00:06:53.540Z,997.75
2018-12-04T00:07:33.960Z,997.7
2018-12-04T00:08:14.314Z,997.77
2018-12-04T00:08:54.760Z,997.82
2018-12-04T00:09:35.146Z,997.9
2018-12-04T00:10:15.619Z,997.87
2018-12-04T00:10:56.049Z,997.94
2018-12-04T00:11:36.414Z,997.98
2018-12-04T00:12:16.814Z,997.96
2018-12-04T00:12:57.217Z,998.02
2018-12-04T00:15:03.657Z,998.19
2018-12-04T00:15:56.918Z,998.22
2018-12-04T00:16:51.472Z,998.22
2018-12-04T00:17:43.727Z,998.29
2018-12-04T00:18:38.039Z,998.29
2018-12-04T00:19:30.482Z,998.37
2018-12-04T00:20:23.737Z,998.31
2018-12-04T00:21:16.306Z,998.35
2018-12-04T00:22:09.822Z,998.45
2018-12-04T00:23:03.807Z,998.45
2018-12-04T00:23:55.936Z,998.55
2018-12-04T00:24:49.561Z,998.58
2018-12-04T00:25:41.857Z,998.61
2018-12-04T00:26:34.476Z,998.66
2018-12-04T00:27:27.640Z,998.62
2018-12-04T00:28:20.516Z,998.72
2018-12-04T00:29:14.001Z,998.61
2018-12-04T00:30:06.341Z,998.82
2018-12-04T00:30:58.902Z,998.83
2018-12-04T00:31:51.367Z,998.9
2018-12-04T00:32:43.902Z,998.85
2018-12-04T00:33:36.504Z,998.88
2018-12-04T00:34:28.840Z,998.92
2018-12-04T00:35:21.392Z,998.93
2018-12-04T00:36:20.916Z,999.03
2018-12-04T00:37:13.814Z,999.12
2018-12-04T00:38:09.496Z,999.12
2018-12-04T00:39:01.940Z,999.17
2018-12-04T00:39:54.460Z,999.18
2018-12-04T00:40:47.010Z,999.25
2018-12-04T00:41:40.862Z,999.3
2018-12-04T00:42:35.486Z,999.35
2018-12-04T00:43:27.944Z,999.33
2018-12-04T00:44:20.855Z,999.31
2018-12-04T00:45:17.318Z,999.37
2018-12-04T00:46:10.315Z,999.32
2018-12-04T00:47:02.846Z,999.44
2018-12-04T00:47:55.418Z,999.41
2018-12-04T00:48:47.786Z,999.45
2018-12-04T00:49:43.147Z,999.54
2018-12-04T00:50:36.078Z,999.54
2018-12-04T00:51:28.462Z,999.58
2018-12-04T00:52:20.996Z,999.57
2018-12-04T00:53:13.164Z,999.61
2018-12-04T00:54:05.962Z,999.72
2018-12-04T00:54:58.405Z,999.74
2018-12-04T00:55:51.524Z,999.74
2018-12-04T00:56:43.771Z,999.79
2018-12-04T00:57:36.504Z,999.79
2018-12-04T00:58:28.851Z,999.79
2018-12-04T00:59:22.034Z,999.78
2018-12-04T01:00:16.229Z,999.77
2018-12-04T01:01:07.746Z,999.81
2018-12-04T01:02:01.157Z,999.83
2018-12-04T01:02:53.385Z,999.91
2018-12-04T01:03:45.734Z,999.84
2018-12-04T01:04:38.109Z,999.9
2018-12-04T01:05:30.199Z,999.93
2018-12-04T01:06:22.447Z,999.98
2018-12-04T01:07:14.944Z,999.95
2018-12-04T01:08:06.826Z,999.92
2018-12-04T01:08:59.453Z,999.96
2018-12-04T01:09:51.288Z,999.95
2018-12-04T01:10:43.465Z,999.98
2018-12-04T01:11:35.414Z,1000.03
2018-12-04T01:12:28.444Z,999.99
2018-12-04T01:13:22.867Z,1000.01
2018-12-04T01:14:15.865Z,1000.05
2018-12-04T01:15:08.522Z,1000.08
2018-12-04T01:16:00.316Z,1000.13
2018-12-04T01:16:53.463Z,1000.12
2018-12-04T01:17:45.915Z,1000.1
2018-12-04T01:18:38.327Z,1000.12
2018-12-04T01:19:32.015Z,1000.11
2018-12-04T01:20:24.317Z,1000.16
2018-12-04T01:21:17.030Z,1000.18
2018-12-04T01:22:09.030Z,1000.24
2018-12-04T01:23:01.379Z,1000.26
2018-12-04T01:23:53.858Z,1000.32
2018-12-04T01:24:47.202Z,1000.37
2018-12-04T01:25:39.247Z,1000.34
2018-12-04T01:26:31.607Z,1000.38
2018-12-04T01:27:23.692Z,1000.4
2018-12-04T01:28:15.546Z,1000.4
2018-12-04T01:29:07.779Z,1000.42
2018-12-04T01:30:00.071Z,1000.45
2018-12-04T01:30:53.044Z,1000.49
2018-12-04T01:31:45.570Z,1000.51
2018-12-04T01:32:39.025Z,1000.53
2018-12-04T01:33:31.191Z,1000.55
2018-12-04T01:34:16.316Z,1000.53
2018-12-04T01:34:59.093Z,1000.54
2018-12-04T01:35:39.759Z,1000.59
2018-12-04T01:36:20.737Z,1000.61
2018-12-04T01:37:02.548Z,1000.61
2018-12-04T01:37:45.542Z,1000.64
2018-12-04T01:38:26.625Z,1000.66
2018-12-04T01:39:07.351Z,1000.66
2018-12-04T01:39:47.968Z,1000.73
2018-12-04T01:40:29.266Z,1000.71
2018-12-04T01:41:10.986Z,1000.74
2018-12-04T01:41:52.766Z,1000.78
2018-12-04T01:42:33.655Z,1000.8
2018-12-04T01:43:14.713Z,1000.83
2018-12-04T01:43:55.771Z,1000.86
2018-12-04T01:44:37.072Z,1000.91
2018-12-04T01:45:17.568Z,1000.88
2018-12-04T01:46:00.184Z,1000.95
2018-12-04T01:46:40.869Z,1000.96
2018-12-04T01:47:21.388Z,1000.98
2018-12-04T01:48:02.191Z,1000.94
2018-12-04T01:48:42.511Z,1001.01
2018-12-04T01:49:23.099Z,1001
2018-12-04T01:50:03.773Z,1000.9
2018-12-04T01:50:44.311Z,1000.99
2018-12-04T01:51:25.952Z,1000.96
2018-12-04T01:52:06.198Z,1001.04
2018-12-04T01:52:50.092Z,1001.05
2018-12-04T01:53:32.165Z,1001.07
2018-12-04T01:54:13.480Z,1001.09
2018-12-04T01:54:54.759Z,1001.11
2018-12-04T01:55:36.556Z,1001.13
2018-12-04T01:56:18.330Z,1001.18
2018-12-04T01:57:01.212Z,1001.22
2018-12-04T01:57:41.855Z,1001.26
2018-12-04T01:58:22.631Z,1001.25
2018-12-04T01:59:04.067Z,1001.27
2018-12-04T01:59:45.710Z,1001.28
2018-12-04T02:00:26.309Z,1001.31
2018-12-04T02:01:06.601Z,1001.3
2018-12-04T02:01:47.611Z,1001.32
2018-12-04T02:02:27.921Z,1001.29
2018-12-04T02:03:08.364Z,1001.37
2018-12-04T02:03:49.210Z,1001.37
2018-12-04T02:04:30.044Z,1001.39
2018-12-04T02:05:11.165Z,1001.37
2018-12-04T02:05:52.095Z,1001.38
2018-12-04T02:06:32.769Z,1001.4
2018-12-04T02:07:13.533Z,1001.36
2018-12-04T02:07:54.890Z,1001.4
2018-12-04T02:08:36.108Z,1001.43
2018-12-04T02:09:17.043Z,1001.4
2018-12-04T02:09:57.572Z,1001.4
2018-12-04T02:10:38.612Z,1001.42
2018-12-04T02:11:18.897Z,1001.46
2018-12-04T02:11:59.591Z,1001.44
2018-12-04T02:12:40.189Z,1001.49
2018-12-04T02:13:20.611Z,1001.48
2018-12-04T02:14:01.305Z,1001.53
2018-12-04T02:14:42.152Z,1001.55
2018-12-04T02:15:22.966Z,1001.54
2018-12-04T02:16:03.582Z,1001.6
2018-12-04T02:16:44.260Z,1001.63
2018-12-04T02:17:25.733Z,1001.64
2018-12-04T02:18:06.185Z,1001.62
2018-12-04T02:18:46.966Z,1001.65
2018-12-04T02:19:27.343Z,1001.68
2018-12-04T02:20:08.713Z,1001.69
2018-12-04T02:20:49.614Z,1001.73
2018-12-04T02:21:30.940Z,1001.71
2018-12-04T02:22:12.127Z,1001.77
2018-12-04T02:22:52.611Z,1001.76
2018-12-04T02:23:33.269Z,1001.77
2018-12-04T02:24:13.714Z,1001.79
2018-12-04T02:24:55.772Z,1001.81
2018-12-04T02:25:37.210Z,1001.81
2018-12-04T02:26:18.065Z,1001.81
2018-12-04T02:26:58.488Z,1001.83
2018-12-04T02:27:39.221Z,1001.83
2018-12-04T02:28:20.791Z,1001.86
2018-12-04T02:29:01.770Z,1001.87
2018-12-04T02:29:42.493Z,1001.89
2018-12-04T02:30:22.957Z,1001.91
2018-12-04T02:31:03.927Z,1001.89
2018-12-04T02:31:45.855Z,1001.91
2018-12-04T02:32:27.098Z,1001.9
2018-12-04T02:33:07.658Z,1001.89
2018-12-04T02:33:49.097Z,1001.9
2018-12-04T02:37:23.454Z,1001.9
2018-12-04T02:38:15.490Z,1001.94
2018-12-04T02:39:09.034Z,1001.9
2018-12-04T02:40:15.077Z,1001.89
2018-12-04T02:41:08.498Z,1001.94
2018-12-04T02:42:02.725Z,1001.87
2018-12-04T02:42:56.186Z,1001.95
2018-12-04T02:43:50.002Z,1001.92
2018-12-04T02:44:45.186Z,1001.98
2018-12-04T02:45:39.453Z,1001.94
2018-12-04T02:46:32.029Z,1002.02
2018-12-04T02:47:25.579Z,1001.98
2018-12-04T02:48:17.306Z,1001.98
2018-12-04T02:49:11.026Z,1002.04
2018-12-04T02:50:04.836Z,1002.07
2018-12-04T02:50:57.106Z,1002.07
2018-12-04T02:51:49.877Z,1002.12
2018-12-04T02:52:52.990Z,1002.1
2018-12-04T02:53:45.493Z,1002.16
2018-12-04T02:54:37.774Z,1002.17
2018-12-04T02:55:30.108Z,1002.18
2018-12-04T02:56:22.624Z,1002.15
2018-12-04T02:57:18.495Z,1002.15
2018-12-04T02:58:11.829Z,1002.16
2018-12-04T02:59:04.024Z,1002.16
2018-12-04T02:59:58.849Z,1002.18
2018-12-04T03:00:52.636Z,1002.22
2018-12-04T03:01:45.175Z,1002.23
2018-12-04T03:02:39.052Z,1002.14
2018-12-04T03:03:35.700Z,1002.18
2018-12-04T03:04:34.821Z,1002.24
2018-12-04T03:05:27.312Z,1002.25
2018-12-04T03:06:19.170Z,1002.22
2018-12-04T03:07:13.465Z,1002.27
2018-12-04T03:08:45.201Z,1002.33
2018-12-04T03:09:39.058Z,1002.35
2018-12-04T03:10:32.752Z,1002.41
2018-12-04T03:11:25.189Z,1002.43
2018-12-04T03:12:17.587Z,1002.46
2018-12-04T03:13:10.317Z,1002.48
2018-12-04T03:14:02.804Z,1002.5
2018-12-04T03:14:55.047Z,1002.52
2018-12-04T03:15:47.193Z,1002.51
2018-12-04T03:16:40.146Z,1002.55
2018-12-04T03:17:33.706Z,1002.58
2018-12-04T03:18:26.550Z,1002.59
2018-12-04T03:19:19.435Z,1002.58
2018-12-04T03:20:13.550Z,1002.64
2018-12-04T03:21:06.027Z,1002.69
2018-12-04T03:21:58.730Z,1002.73
2018-12-04T03:22:58.006Z,1002.75
2018-12-04T03:23:51.269Z,1002.74
2018-12-04T03:24:43.959Z,1002.75
2018-12-04T03:25:36.946Z,1002.75
2018-12-04T03:26:29.098Z,1002.79
2018-12-04T03:27:22.687Z,1002.81
2018-12-04T03:28:16.055Z,1002.81
2018-12-04T03:29:08.503Z,1002.8
2018-12-04T03:30:00.861Z,1002.81
2018-12-04T03:30:53.990Z,1002.83
2018-12-04T03:31:46.758Z,1002.86
2018-12-04T03:32:39.048Z,1002.85
2018-12-04T03:33:32.609Z,1002.86
2018-12-04T03:34:24.477Z,1002.89
2018-12-04T03:35:17.077Z,1002.89
2018-12-04T03:36:10.207Z,1002.85
2018-12-04T03:37:03.250Z,1002.92
2018-12-04T03:37:55.775Z,1002.93
2018-12-04T03:38:48.171Z,1002.94
2018-12-04T03:39:40.635Z,1002.94
2018-12-04T03:40:32.963Z,1003
2018-12-04T03:41:18.321Z,1003.04
2018-12-04T03:41:59.453Z,1002.98
2018-12-04T03:42:40.382Z,1003.01
2018-12-04T03:43:21.003Z,1003.02
2018-12-04T03:44:01.853Z,1003.01
2018-12-04T03:44:42.373Z,1003.02
2018-12-04T03:45:24.063Z,1003.05
2018-12-04T03:46:04.804Z,1003.07
2018-12-04T03:46:47.002Z,1003.07
2018-12-04T03:47:29.470Z,1003.08
2018-12-04T03:48:10.864Z,1003.15
2018-12-04T03:48:53.272Z,1003.14
2018-12-04T03:49:33.781Z,1003.16
2018-12-04T03:50:14.867Z,1003.16
2018-12-04T03:50:55.893Z,1003.15
2018-12-04T03:51:36.870Z,1003.15
2018-12-04T03:52:18.605Z,1003.19
2018-12-04T03:53:00.438Z,1003.18
2018-12-04T03:53:41.429Z,1003.19
2018-12-04T03:54:24.410Z,1003.22
2018-12-04T03:55:05.802Z,1003.19
2018-12-04T03:55:48.075Z,1003.17
2018-12-04T03:56:29.634Z,1003.17
2018-12-04T03:57:12.141Z,1003.19
2018-12-04T03:57:52.792Z,1003.21
2018-12-04T03:58:33.375Z,1003.24
2018-12-04T03:59:15.760Z,1003.24
2018-12-04T03:59:56.747Z,1003.2
2018-12-04T04:00:37.555Z,1003.28
2018-12-04T04:01:18.982Z,1003.27
2018-12-04T04:01:59.977Z,1003.31
2018-12-04T04:02:41.023Z,1003.31
2018-12-04T04:03:22.718Z,1003.36
2018-12-04T04:04:03.392Z,1003.36
2018-12-04T04:04:44.047Z,1003.31
2018-12-04T04:05:25.548Z,1003.33
2018-12-04T04:06:08.018Z,1003.33
2018-12-04T04:06:50.122Z,1003.38
2018-12-04T04:07:31.992Z,1003.39
2018-12-04T04:08:13.533Z,1003.41
2018-12-04T04:08:54.665Z,1003.4
2018-12-04T04:09:35.842Z,1003.42
2018-12-04T04:10:17.390Z,1003.42
2018-12-04T04:11:00.836Z,1003.43
2018-12-04T04:11:41.750Z,1003.4
2018-12-04T04:12:22.360Z,1003.41
2018-12-04T04:13:04.707Z,1003.41
2018-12-04T04:13:45.313Z,1003.45
2018-12-04T04:14:26.395Z,1003.5
2018-12-04T04:15:08.191Z,1003.53
2018-12-04T04:15:49.386Z,1003.52
2018-12-04T04:16:31.441Z,1003.59
2018-12-04T04:17:12.781Z,1003.58
2018-12-04T04:17:53.502Z,1003.57
2018-12-04T04:18:33.995Z,1003.59
2018-12-04T04:19:15.367Z,1003.61
2018-12-04T04:19:57.217Z,1003.63
2018-12-04T04:20:38.773Z,1003.66
2018-12-04T04:21:19.646Z,1003.67
2018-12-04T04:22:01.692Z,1003.63
2018-12-04T04:22:43.414Z,1003.71
2018-12-04T04:23:24.438Z,1003.65
2018-12-04T04:24:05.391Z,1003.67
2018-12-04T04:24:46.645Z,1003.7
2018-12-04T04:25:27.319Z,1003.68
2018-12-04T04:26:08.152Z,1003.74
2018-12-04T04:26:49.200Z,1003.78
2018-12-04T04:27:30.231Z,1003.75
2018-12-04T05:08:32.980Z,1004.31
2018-12-04T05:09:27.599Z,1004.34
2018-12-04T05:10:21.513Z,1004.41
2018-12-04T05:11:13.871Z,1004.41
2018-12-04T05:12:08.101Z,1004.48
2018-12-04T05:13:00.869Z,1004.52
2018-12-04T05:13:53.399Z,1004.54
2018-12-04T05:14:54.530Z,1004.58
2018-12-04T05:15:48.777Z,1004.58
2018-12-04T05:16:41.872Z,1004.55
2018-12-04T05:17:34.995Z,1004.57
2018-12-04T05:18:28.639Z,1004.62
2018-12-04T05:19:24.548Z,1004.62
2018-12-04T05:20:19.175Z,1004.65
2018-12-04T05:21:19.689Z,1004.68
2018-12-04T05:22:34.375Z,1004.74
2018-12-04T05:24:31.974Z,1004.72
2018-12-04T05:25:19.254Z,1004.7
2018-12-04T05:25:59.492Z,1004.71
2018-12-04T05:26:39.944Z,1004.74
2018-12-04T05:27:20.449Z,1004.69
2018-12-04T05:28:00.898Z,1004.73
2018-12-04T05:28:41.363Z,1004.71
2018-12-04T05:29:21.893Z,1004.73
2018-12-04T05:30:02.318Z,1004.73
2018-12-04T05:30:42.739Z,1004.75
2018-12-04T05:31:23.170Z,1004.82
2018-12-04T05:32:03.696Z,1004.8
2018-12-04T05:32:44.024Z,1004.88
2018-12-04T05:33:24.519Z,1004.88
2018-12-04T05:34:04.985Z,1004.9
2018-12-04T05:34:45.665Z,1004.92
2018-12-04T05:35:26.398Z,1004.93
2018-12-04T05:36:07.746Z,1004.98
2018-12-04T05:36:48.102Z,1005
2018-12-04T05:37:28.670Z,1005
2018-12-04T05:38:09.099Z,1005.05
2018-12-04T05:38:49.630Z,1005.05
2018-12-04T05:39:30.137Z,1005.05
2018-12-04T05:40:10.686Z,1005.09
2018-12-04T05:40:51.252Z,1005.07
2018-12-04T05:41:31.606Z,1005.11
2018-12-04T05:42:12.098Z,1005.13
2018-12-04T05:42:52.558Z,1005.12
2018-12-04T05:45:16.628Z,1005.13
2018-12-04T05:46:13.934Z,1005.17
2018-12-04T05:47:09.352Z,1005.19
2018-12-04T05:48:04.403Z,1005.24
2018-12-04T05:48:56.951Z,1005.26
2018-12-04T05:49:50.739Z,1005.31
2018-12-04T05:50:47.390Z,1005.33
2018-12-04T05:51:44.160Z,1005.27
2018-12-04T05:52:38.792Z,1005.3
2018-12-04T05:56:20.575Z,1005.38
2018-12-04T05:57:00.929Z,1005.39
2018-12-04T05:57:41.311Z,1005.41
2018-12-04T05:58:21.718Z,1005.42
2018-12-04T05:59:02.160Z,1005.44
2018-12-04T05:59:43.484Z,1005.44
2018-12-04T06:00:23.925Z,1005.5
2018-12-04T06:01:04.289Z,1005.51
2018-12-04T06:01:44.762Z,1005.55
2018-12-04T06:02:25.403Z,1005.59
2018-12-04T06:03:05.757Z,1005.59
2018-12-04T06:03:46.147Z,1005.61
2018-12-04T06:06:08.525Z,1005.68
2018-12-04T06:07:03.483Z,1005.72
2018-12-04T06:07:56.898Z,1005.74
2018-12-04T06:08:52.023Z,1005.75
2018-12-04T06:09:46.928Z,1005.79
2018-12-04T06:10:41.546Z,1005.82
2018-12-04T06:11:36.401Z,1005.78
2018-12-04T06:12:30.364Z,1005.84
2018-12-04T06:13:30.440Z,1005.83
2018-12-04T06:14:26.953Z,1005.9
2018-12-04T06:15:21.432Z,1005.91
2018-12-04T06:16:14.096Z,1005.91
2018-12-04T06:17:08.552Z,1005.9
2018-12-04T06:18:01.829Z,1005.9
2018-12-04T06:18:54.791Z,1005.97
2018-12-04T06:19:48.352Z,1005.92
2018-12-04T06:20:42.229Z,1006.01
2018-12-04T06:21:37.606Z,1006.02
2018-12-04T06:22:31.440Z,1005.99
2018-12-04T06:23:26.032Z,1006.03
2018-12-04T06:24:22.782Z,1006.02
2018-12-04T06:25:19.831Z,1006
2018-12-04T06:26:15.477Z,1006.03
2018-12-04T06:27:10.215Z,1006
2018-12-04T06:28:06.066Z,1006.05
2018-12-04T06:29:03.052Z,1006.06
2018-12-04T06:31:23.194Z,1006.15
2018-12-04T06:32:03.553Z,1006.19
2018-12-04T06:32:44.039Z,1006.24
2018-12-04T06:33:24.486Z,1006.27
2018-12-04T06:34:06.135Z,1006.27
2018-12-04T06:34:47.051Z,1006.3
2018-12-04T06:35:27.518Z,1006.32
2018-12-04T06:36:07.934Z,1006.35
2018-12-04T06:36:48.305Z,1006.39
2018-12-04T06:37:28.804Z,1006.38
2018-12-04T06:39:48.445Z,1006.47
2018-12-04T06:40:29.609Z,1006.49
2018-12-04T06:41:09.892Z,1006.52
2018-12-04T06:41:50.353Z,1006.52
2018-12-04T06:42:30.824Z,1006.52
2018-12-04T06:43:11.185Z,1006.57
2018-12-04T06:43:53.982Z,1006.52
2018-12-04T06:44:35.292Z,1006.57
2018-12-04T06:45:14.389Z,1006.6
2018-12-04T06:45:54.897Z,1006.62
2018-12-04T06:46:35.322Z,1006.67
2018-12-04T06:47:15.822Z,1006.69
2018-12-04T06:58:07.376Z,1006.93
2018-12-04T06:58:48.163Z,1006.93
2018-12-04T06:59:29.491Z,1006.93
2018-12-04T07:00:09.551Z,1006.93
2018-12-04T07:00:50.113Z,1006.96
2018-12-04T07:01:31.033Z,1007
2018-12-04T07:02:11.578Z,1007.01
2018-12-04T07:02:52.078Z,1007.05
2018-12-04T07:03:32.582Z,1007.09
2018-12-04T07:04:13.578Z,1007.09
2018-12-04T07:04:55.122Z,1007.13
2018-12-04T07:05:35.876Z,1007.13
2018-12-04T07:08:09.475Z,1007.16
2018-12-04T07:10:04.134Z,1007.21
2018-12-04T07:14:05.197Z,1007.28
2018-12-04T07:14:46.705Z,1007.31
2018-12-04T07:15:26.731Z,1007.32
2018-12-04T07:16:07.192Z,1007.37
2018-12-04T07:16:47.914Z,1007.33
2018-12-04T07:17:29.474Z,1007.37
2018-12-04T07:18:09.106Z,1007.35
2018-12-04T07:18:50.398Z,1007.37
2018-12-04T07:19:30.753Z,1007.36
2018-12-04T07:20:12.284Z,1007.39
2018-12-04T07:20:52.515Z,1007.39
2018-12-04T07:21:37.741Z,1007.4
2018-12-04T07:22:17.933Z,1007.4
2018-12-04T07:22:58.687Z,1007.41
2018-12-04T07:23:40.200Z,1007.41
2018-12-04T07:24:22.192Z,1007.43
2018-12-04T07:25:02.466Z,1007.43
2018-12-04T07:25:43.753Z,1007.43
2018-12-04T07:26:24.691Z,1007.51
2018-12-04T07:27:04.655Z,1007.5
2018-12-04T07:27:46.277Z,1007.55
2018-12-04T07:28:27.221Z,1007.54
2018-12-04T07:29:07.154Z,1007.57
2018-12-04T07:29:48.699Z,1007.52
2018-12-04T07:30:28.785Z,1007.59
2018-12-04T07:31:09.315Z,1007.63
2018-12-04T07:31:50.231Z,1007.62
2018-12-04T07:32:30.856Z,1007.66
2018-12-04T07:33:11.260Z,1007.7
2018-12-04T07:33:51.977Z,1007.66
2018-12-04T07:34:32.650Z,1007.69
2018-12-04T07:35:13.416Z,1007.73
2018-12-04T07:35:53.891Z,1007.75
2018-12-04T07:36:34.721Z,1007.76
2018-12-04T07:37:15.400Z,1007.78
2018-12-04T07:37:55.867Z,1007.81
2018-12-04T07:38:36.445Z,1007.83
2018-12-04T07:39:16.931Z,1007.81
2018-12-04T07:39:57.705Z,1007.85
2018-12-04T07:40:38.135Z,1007.86
2018-12-04T07:41:18.602Z,1007.84
2018-12-04T07:41:59.139Z,1007.87
2018-12-04T07:42:39.536Z,1007.89
2018-12-04T07:43:19.940Z,1007.92
2018-12-04T07:45:19.702Z,1007.99
2018-12-04T07:46:00.118Z,1007.95
2018-12-04T07:46:40.540Z,1008.02
2018-12-04T07:47:21.060Z,1008.03
2018-12-04T07:48:01.440Z,1008.09
2018-12-04T07:48:41.871Z,1008.03
2018-12-04T07:49:22.300Z,1008.07
2018-12-04T07:50:02.759Z,1008.08
2018-12-04T07:50:43.327Z,1008.06
2018-12-04T07:51:23.659Z,1008.1
2018-12-04T07:52:04.029Z,1008.12
2018-12-04T07:52:44.489Z,1008.15
2018-12-04T07:53:24.844Z,1008.19
2018-12-04T07:54:05.391Z,1008.27
2018-12-04T07:54:45.670Z,1008.3
2018-12-04T07:55:26.087Z,1008.28
2018-12-04T07:56:06.618Z,1008.33
2018-12-04T07:56:47.301Z,1008.36
2018-12-04T07:57:27.712Z,1008.38
2018-12-04T07:58:08.272Z,1008.39
2018-12-04T07:58:49.649Z,1008.36
2018-12-04T07:59:29.966Z,1008.37
2018-12-04T08:00:10.756Z,1008.4
2018-12-04T08:00:51.601Z,1008.45
2018-12-04T08:01:32.235Z,1008.43
2018-12-04T08:02:12.981Z,1008.47
2018-12-04T08:02:53.363Z,1008.49
2018-12-04T08:03:34.156Z,1008.48
2018-12-04T08:04:15.053Z,1008.47
2018-12-04T08:04:55.757Z,1008.46
2018-12-04T08:05:36.730Z,1008.47
2018-12-04T08:06:17.222Z,1008.52
2018-12-04T08:06:58.639Z,1008.51
2018-12-04T08:07:39.193Z,1008.52
2018-12-04T08:08:20.606Z,1008.59
2018-12-04T08:09:01.256Z,1008.57
2018-12-04T08:09:41.864Z,1008.53
2018-12-04T08:10:22.571Z,1008.63
2018-12-04T08:11:04.134Z,1008.63
2018-12-04T08:11:43.752Z,1008.65
2018-12-04T08:12:24.183Z,1008.68
2018-12-04T08:13:04.790Z,1008.69
2018-12-04T08:13:45.625Z,1008.72
2018-12-04T08:14:27.125Z,1008.71
2018-12-04T08:15:08.137Z,1008.74
2018-12-04T08:15:48.832Z,1008.79
2018-12-04T08:16:29.798Z,1008.86
2018-12-04T08:17:10.640Z,1008.82
2018-12-04T08:17:51.362Z,1008.84
2018-12-04T08:18:32.661Z,1008.89
2018-12-04T08:19:12.712Z,1008.89
2018-12-04T08:19:54.154Z,1008.92
2018-12-04T08:20:34.047Z,1008.9
2018-12-04T08:21:15.868Z,1008.91
2018-12-04T08:21:55.968Z,1008.89
2018-12-04T08:22:36.530Z,1008.93
2018-12-04T08:23:17.158Z,1008.91
2018-12-04T08:23:58.279Z,1008.92
2018-12-04T08:24:38.655Z,1008.89
2018-12-04T08:25:19.507Z,1008.91
2018-12-04T08:26:00.523Z,1008.92
2018-12-04T08:26:41.031Z,1008.91
2018-12-04T08:27:21.962Z,1008.95
2018-12-04T08:28:02.661Z,1008.97
2018-12-04T08:28:43.530Z,1008.95
2018-12-04T08:29:24.588Z,1008.96
2018-12-04T08:30:05.102Z,1009.01
2018-12-04T08:30:45.702Z,1008.97
2018-12-04T08:31:26.657Z,1008.96
2018-12-04T08:32:08.160Z,1008.98
2018-12-04T08:32:48.464Z,1008.97
2018-12-04T08:33:29.654Z,1008.99
2018-12-04T08:34:10.656Z,1008.94
2018-12-04T08:34:50.711Z,1008.98
2018-12-04T08:35:31.235Z,1009.01
2018-12-04T08:36:12.653Z,1009
2018-12-04T08:36:52.326Z,1009.03
2018-12-04T08:37:33.157Z,1009.03
2018-12-04T08:38:14.109Z,1009.02
2018-12-04T08:38:54.375Z,1009
2018-12-04T08:39:35.108Z,1009.04
2018-12-04T08:40:17.142Z,1009.08
2018-12-04T08:40:56.666Z,1009.1
2018-12-04T08:41:37.173Z,1009.13
2018-12-04T08:42:18.214Z,1009.1
2018-12-04T08:42:58.623Z,1009.13
2018-12-04T08:43:39.175Z,1009.16
2018-12-04T08:44:19.987Z,1009.14
2018-12-04T08:45:01.803Z,1009.11
2018-12-04T08:45:41.512Z,1009.14
2018-12-04T08:46:22.053Z,1009.17
2018-12-04T08:47:03.628Z,1009.2
2018-12-04T08:47:44.328Z,1009.21
2018-12-04T08:48:24.601Z,1009.22
2018-12-04T08:49:05.246Z,1009.26
2018-12-04T08:49:46.052Z,1009.25
2018-12-04T08:50:26.523Z,1009.27
2018-12-04T08:51:07.734Z,1009.27
2018-12-04T08:51:48.802Z,1009.32
2018-12-04T08:52:29.653Z,1009.34
2018-12-04T08:53:09.829Z,1009.35
2018-12-04T08:53:51.294Z,1009.38
2018-12-04T08:54:31.265Z,1009.38
2018-12-04T08:55:12.374Z,1009.42
2018-12-04T08:55:53.638Z,1009.4
2018-12-04T08:56:33.660Z,1009.43
2018-12-04T08:57:14.435Z,1009.49
2018-12-04T08:57:55.661Z,1009.54
2018-12-04T08:58:36.797Z,1009.52
2018-12-04T08:59:19.045Z,1009.52
2018-12-04T09:00:00.400Z,1009.57
2018-12-04T09:00:43.924Z,1009.61
2018-12-04T09:01:25.052Z,1009.62
2018-12-04T09:04:04.733Z,1009.66
2018-12-04T09:04:46.492Z,1009.69
2018-12-04T09:05:27.847Z,1009.78
2018-12-04T09:06:10.134Z,1009.78
2018-12-04T09:06:53.459Z,1009.86
2018-12-04T09:07:33.867Z,1009.88
2018-12-04T09:08:16.848Z,1009.92
2018-12-04T09:08:58.236Z,1009.91
2018-12-04T09:09:39.434Z,1009.93
2018-12-04T09:10:22.438Z,1009.92
2018-12-04T09:11:04.252Z,1009.94
2018-12-04T09:11:44.713Z,1009.92
2018-12-04T09:12:26.280Z,1009.94
2018-12-04T09:13:06.933Z,1009.96
2018-12-04T09:13:50.273Z,1009.98
2018-12-04T09:14:30.496Z,1010.01
2018-12-04T09:15:11.991Z,1010.04
2018-12-04T09:15:52.394Z,1009.99
2018-12-04T09:16:32.495Z,1010.02
2018-12-04T09:17:13.297Z,1010.04
2018-12-04T09:17:53.783Z,1010.08
2018-12-04T09:18:35.300Z,1010.07
2018-12-04T09:19:15.572Z,1010.08
2018-12-04T09:19:56.114Z,1010.08
2018-12-04T09:20:36.923Z,1010.09
2018-12-04T09:21:17.546Z,1010.06
2018-12-04T09:21:58.630Z,1010.13
2018-12-04T09:22:39.787Z,1010.13
2018-12-04T09:23:20.592Z,1010.2
2018-12-04T09:24:00.840Z,1010.21
2018-12-04T09:24:41.520Z,1010.21
2018-12-04T09:25:22.388Z,1010.26
2018-12-04T09:26:02.698Z,1010.26
2018-12-04T09:26:43.161Z,1010.32
2018-12-04T09:27:23.909Z,1010.32
2018-12-04T09:28:05.393Z,1010.36
2018-12-04T09:28:46.439Z,1010.31
2018-12-04T09:29:26.504Z,1010.33
2018-12-04T09:30:07.471Z,1010.36
2018-12-04T09:30:48.169Z,1010.41
2018-12-04T09:31:28.971Z,1010.39
2018-12-04T09:32:09.784Z,1010.44
2018-12-04T09:32:50.718Z,1010.43
2018-12-04T09:33:31.801Z,1010.42
2018-12-04T09:34:12.210Z,1010.45
2018-12-04T09:34:53.113Z,1010.49
2018-12-04T09:35:34.898Z,1010.5
2018-12-04T09:36:14.886Z,1010.53
2018-12-04T09:36:56.398Z,1010.55
2018-12-04T09:37:36.656Z,1010.54
2018-12-04T09:38:17.561Z,1010.57
2018-12-04T09:38:58.466Z,1010.63
2018-12-04T09:39:39.768Z,1010.61
2018-12-04T09:40:19.777Z,1010.66
2018-12-04T09:41:00.559Z,1010.63
2018-12-04T09:41:41.501Z,1010.66
2018-12-04T09:42:23.488Z,1010.66
2018-12-04T09:43:04.366Z,1010.62
2018-12-04T09:43:44.241Z,1010.63
2018-12-04T09:44:25.797Z,1010.66
2018-12-04T09:45:06.372Z,1010.67
2018-12-04T09:45:46.675Z,1010.67
2018-12-04T09:46:27.782Z,1010.66
2018-12-04T09:47:09.791Z,1010.67
2018-12-04T09:47:50.347Z,1010.63
2018-12-04T09:48:30.635Z,1010.66
2018-12-04T09:49:11.128Z,1010.63
2018-12-04T09:49:51.751Z,1010.63
2018-12-04T09:50:33.299Z,1010.65
2018-12-04T09:51:13.503Z,1010.67
2018-12-04T09:51:54.057Z,1010.69
2018-12-04T09:52:34.944Z,1010.68
2018-12-04T09:53:15.510Z,1010.65
2018-12-04T09:53:57.287Z,1010.72
2018-12-04T09:54:37.050Z,1010.72
2018-12-04T09:55:18.281Z,1010.76
2018-12-04T09:55:58.845Z,1010.75
2018-12-04T09:56:39.791Z,1010.76
2018-12-04T09:57:21.478Z,1010.82
2018-12-04T09:58:01.793Z,1010.75
2018-12-04T09:58:42.152Z,1010.78
2018-12-04T09:59:23.294Z,1010.78
2018-12-04T10:00:03.365Z,1010.8
2018-12-04T10:00:44.786Z,1010.79
2018-12-04T10:01:26.276Z,1010.77
2018-12-04T10:02:06.782Z,1010.76
2018-12-04T10:02:47.952Z,1010.78
2018-12-04T10:03:29.642Z,1010.77
2018-12-04T10:04:11.315Z,1010.78
2018-12-04T10:04:52.285Z,1010.84
2018-12-04T10:05:32.223Z,1010.86
2018-12-04T10:06:13.199Z,1010.91
2018-12-04T10:06:54.299Z,1010.87
2018-12-04T10:07:34.687Z,1010.89
2018-12-04T10:08:15.229Z,1010.92
2018-12-04T10:08:56.300Z,1010.88
2018-12-04T10:09:36.600Z,1010.94
2018-12-04T10:10:17.562Z,1010.94
2018-12-04T10:10:58.923Z,1010.99
2018-12-04T10:11:38.990Z,1010.97
2018-12-04T10:12:19.782Z,1010.9
2018-12-04T10:13:00.101Z,1011.01
2018-12-04T10:13:41.107Z,1011
2018-12-04T10:14:21.912Z,1011.01
2018-12-04T10:15:02.580Z,1011
2018-12-04T10:15:43.174Z,1011.08
2018-12-04T10:16:23.942Z,1011.08
2018-12-04T10:17:04.814Z,1011.11
2018-12-04T10:17:46.486Z,1011.09
2018-12-04T10:18:28.325Z,1011.13
2018-12-04T10:19:08.001Z,1011.12